createdAt,value
2018-08-14T00:00:19.383Z,72.20
2018-08-14T00:02:47.802Z,72.90
2018-08-14T00:05:16.204Z,72.60
2018-08-14T00:07:45.020Z,72.60
2018-08-14T00:10:13.744Z,73.30
2018-08-14T00:12:42.151Z,73.30
2018-08-14T00:15:13.439Z,73.10
2018-08-14T00:17:42.067Z,72.70
2018-08-14T00:20:11.627Z,72.10
2018-08-14T00:22:40.323Z,71.40
2018-08-14T00:25:09.754Z,71.10
2018-08-14T00:27:39.230Z,71.20
2018-08-14T00:30:14.331Z,70.30
2018-08-14T00:32:42.663Z,70.50
2018-08-14T00:35:11.088Z,70.40
2018-08-14T00:37:39.540Z,70.20
2018-08-14T00:40:10.715Z,70.60
2018-08-14T00:42:39.087Z,71.00
2018-08-14T00:45:09.952Z,70.30
2018-08-14T00:47:38.350Z,69.80
2018-08-14T00:50:07.671Z,70.60
2018-08-14T00:52:36.031Z,69.60
2018-08-14T00:55:05.446Z,69.80
2018-08-14T00:57:33.878Z,69.70
2018-08-14T01:00:02.378Z,69.50
2018-08-14T01:02:30.816Z,71.30
2018-08-14T01:04:59.154Z,70.70
2018-08-14T01:07:27.510Z,70.30
2018-08-14T01:09:55.850Z,71.30
2018-08-14T01:12:24.188Z,71.60
2018-08-14T01:14:52.546Z,71.10
2018-08-14T01:17:20.938Z,71.00
2018-08-14T01:19:49.326Z,72.10
2018-08-14T01:22:17.710Z,72.00
2018-08-14T01:24:46.105Z,72.30
2018-08-14T01:27:14.516Z,72.70
2018-08-14T01:29:44.184Z,72.90
2018-08-14T01:32:12.646Z,72.60
2018-08-14T01:34:41.016Z,72.50
2018-08-14T01:37:09.412Z,72.70
2018-08-14T01:39:37.804Z,72.50
2018-08-14T01:42:06.188Z,72.40
2018-08-14T01:44:34.569Z,72.40
2018-08-14T01:47:02.951Z,72.90
2018-08-14T01:49:31.353Z,73.50
2018-08-14T01:51:59.767Z,73.70
2018-08-14T01:54:28.177Z,74.00
2018-08-14T01:56:56.577Z,73.60
2018-08-14T01:59:24.941Z,74.30
2018-08-14T02:01:53.331Z,74.40
2018-08-14T02:04:21.691Z,74.40
2018-08-14T02:06:50.073Z,74.30
2018-08-14T02:09:18.430Z,74.40
2018-08-14T02:11:46.853Z,74.20
2018-08-14T02:14:15.163Z,75.20
2018-08-14T02:16:43.555Z,75.60
2018-08-14T02:19:12.003Z,75.60
2018-08-14T02:21:40.411Z,75.30
2018-08-14T02:24:08.824Z,76.80
2018-08-14T02:26:37.210Z,76.20
2018-08-14T02:29:05.763Z,76.20
2018-08-14T02:31:34.089Z,77.10
2018-08-14T02:34:02.473Z,77.20
2018-08-14T02:36:30.880Z,77.30
2018-08-14T02:38:59.291Z,76.80
2018-08-14T02:41:27.674Z,77.00
2018-08-14T02:43:56.051Z,77.50
2018-08-14T02:46:24.430Z,77.80
2018-08-14T02:48:52.791Z,78.10
2018-08-14T02:51:21.202Z,78.40
2018-08-14T02:53:49.556Z,78.20
2018-08-14T02:56:17.956Z,79.40
2018-08-14T02:58:46.332Z,79.30
2018-08-14T03:01:14.721Z,78.70
2018-08-14T03:03:43.080Z,80.10
2018-08-14T03:06:11.490Z,80.90
2018-08-14T03:11:22.832Z,80.30
2018-08-14T03:13:51.218Z,80.60
2018-08-14T03:16:19.608Z,81.40
2018-08-14T03:18:47.995Z,81.30
2018-08-14T03:21:16.388Z,81.90
2018-08-14T03:23:44.796Z,82.00
2018-08-14T03:26:13.232Z,82.20
2018-08-14T03:28:41.610Z,82.20
2018-08-14T03:31:09.934Z,82.70
2018-08-14T03:33:38.292Z,83.10
2018-08-14T03:36:06.648Z,83.70
2018-08-14T03:38:35.075Z,84.10
2018-08-14T03:41:03.438Z,83.70
2018-08-14T03:43:31.790Z,83.90
2018-08-14T03:46:00.138Z,84.10
2018-08-14T03:48:28.544Z,83.90
2018-08-14T03:50:56.956Z,84.70
2018-08-14T03:53:25.342Z,85.00
2018-08-14T03:55:53.740Z,84.80
2018-08-14T03:58:22.144Z,84.60
2018-08-14T04:00:50.543Z,85.90
2018-08-14T04:03:18.904Z,85.50
2018-08-14T04:05:47.270Z,85.80
2018-08-14T04:08:15.679Z,85.00
2018-08-14T04:10:43.995Z,85.40
2018-08-14T04:13:12.445Z,86.30
2018-08-14T04:15:40.879Z,86.50
2018-08-14T04:18:10.013Z,86.30
2018-08-14T04:20:38.886Z,85.80
2018-08-14T04:23:07.275Z,85.60
2018-08-14T04:25:35.675Z,85.20
2018-08-14T04:28:04.099Z,84.60
2018-08-14T04:30:32.475Z,84.70
2018-08-14T04:33:00.843Z,84.40
2018-08-14T04:35:29.439Z,83.80
2018-08-14T04:37:58.111Z,83.60
2018-08-14T04:40:26.740Z,83.00
2018-08-14T04:42:55.155Z,81.50
2018-08-14T04:45:23.816Z,80.90
2018-08-14T04:47:52.488Z,80.50
2018-08-14T04:50:20.923Z,80.80
2018-08-14T04:52:49.298Z,79.30
2018-08-14T04:55:17.709Z,79.70
2018-08-14T04:57:46.107Z,78.50
2018-08-14T05:00:15.504Z,78.20
2018-08-14T05:02:44.802Z,78.60
2018-08-14T05:05:14.114Z,78.40
2018-08-14T05:07:44.970Z,75.70
2018-08-14T05:10:14.658Z,76.00
2018-08-14T05:12:42.990Z,74.80
2018-08-14T05:15:11.459Z,73.30
2018-08-14T05:17:40.514Z,71.30
2018-08-14T05:20:10.412Z,72.00
2018-08-14T05:22:38.794Z,72.20
2018-08-14T05:25:07.680Z,73.10
2018-08-14T05:27:36.465Z,72.40
2018-08-14T05:30:06.644Z,71.20
2018-08-14T05:32:35.034Z,69.70
2018-08-14T05:35:03.449Z,69.70
2018-08-14T05:37:31.784Z,67.60
2018-08-14T05:40:00.115Z,65.80
2018-08-14T05:42:28.506Z,66.60
2018-08-14T05:44:56.934Z,68.40
2018-08-14T05:47:25.308Z,68.90
2018-08-14T05:49:53.654Z,67.70
2018-08-14T05:52:21.983Z,66.20
2018-08-14T05:54:50.377Z,66.50
2018-08-14T05:57:19.005Z,63.50
2018-08-14T05:59:47.393Z,62.20
2018-08-14T06:02:15.766Z,60.50
2018-08-14T06:04:44.179Z,59.20
2018-08-14T06:07:12.590Z,58.70
2018-08-14T06:09:40.967Z,59.10
2018-08-14T06:12:09.312Z,60.90
2018-08-14T06:14:37.727Z,59.50
2018-08-14T06:17:06.416Z,58.30
2018-08-14T06:19:34.827Z,57.30
2018-08-14T06:22:03.351Z,57.60
2018-08-14T06:24:31.783Z,58.80
2018-08-14T06:27:00.179Z,59.10
2018-08-14T06:29:28.571Z,59.90
2018-08-14T06:31:56.973Z,57.70
2018-08-14T06:34:25.341Z,55.50
2018-08-14T06:36:53.749Z,54.20
2018-08-14T06:39:22.091Z,53.50
2018-08-14T06:41:50.443Z,54.90
2018-08-14T06:44:27.070Z,55.20
2018-08-14T06:46:55.531Z,55.20
2018-08-14T06:49:23.959Z,54.60
2018-08-14T06:51:52.338Z,52.40
2018-08-14T06:54:20.681Z,53.40
2018-08-14T06:56:49.058Z,52.40
2018-08-14T06:59:17.508Z,52.70
2018-08-14T07:01:45.882Z,53.90
2018-08-14T07:04:14.228Z,53.60
2018-08-14T07:06:42.640Z,51.80
2018-08-14T07:09:11.282Z,49.00
2018-08-14T07:11:39.619Z,48.00
2018-08-14T07:14:09.482Z,46.80
2018-08-14T07:16:38.788Z,46.70
2018-08-14T07:19:08.379Z,45.80
2018-08-14T07:21:36.969Z,45.70
2018-08-14T07:24:05.472Z,45.10
2018-08-14T07:26:33.879Z,46.00
2018-08-14T07:29:02.278Z,46.30
2018-08-14T07:31:30.702Z,46.00
2018-08-14T07:33:59.139Z,47.50
2018-08-14T07:36:27.754Z,48.30
2018-08-14T07:38:56.127Z,48.40
2018-08-14T07:41:27.151Z,50.20
2018-08-14T07:43:56.967Z,50.00
2018-08-14T07:46:25.398Z,47.00
2018-08-14T07:48:54.547Z,47.50
2018-08-14T07:51:22.939Z,47.10
2018-08-14T07:53:51.297Z,47.00
2018-08-14T07:56:20.258Z,47.00
2018-08-14T07:58:48.712Z,45.00
2018-08-14T08:01:17.083Z,46.90
2018-08-14T08:03:45.409Z,45.00
2018-08-14T08:06:14.032Z,43.80
2018-08-14T08:08:42.421Z,42.80
2018-08-14T08:11:10.922Z,45.10
2018-08-14T08:13:39.285Z,45.30
2018-08-14T08:16:07.630Z,45.50
2018-08-14T08:18:36.229Z,42.50
2018-08-14T08:21:04.573Z,40.30
2018-08-14T08:23:32.985Z,42.00
2018-08-14T08:26:01.367Z,40.50
2018-08-14T08:28:29.759Z,41.80
2018-08-14T08:30:58.164Z,40.80
2018-08-14T08:33:26.535Z,39.40
2018-08-14T08:35:54.915Z,41.10
2018-08-14T08:38:23.558Z,39.80
2018-08-14T08:40:51.906Z,41.30
2018-08-14T08:43:20.324Z,42.20
2018-08-14T08:45:48.718Z,40.20
2018-08-14T08:48:20.397Z,41.60
2018-08-14T08:50:49.142Z,45.30
2018-08-14T08:53:19.280Z,47.30
2018-08-14T08:55:47.964Z,48.30
2018-08-14T08:58:17.050Z,47.70
2018-08-14T09:00:45.327Z,47.50
2018-08-14T09:03:13.808Z,47.00
2018-08-14T09:05:42.186Z,47.40
2018-08-14T09:08:12.624Z,47.60
2018-08-14T09:10:41.368Z,46.10
2018-08-14T09:13:11.368Z,47.40
2018-08-14T09:15:39.898Z,48.50
2018-08-14T09:18:08.454Z,48.00
2018-08-14T09:20:37.005Z,47.50
2018-08-14T09:23:05.478Z,47.50
2018-08-14T09:25:33.935Z,47.90
2018-08-14T09:28:02.424Z,47.90
2018-08-14T09:30:30.809Z,47.70
2018-08-14T09:32:59.213Z,46.60
2018-08-14T09:35:27.634Z,45.70
2018-08-14T09:37:56.091Z,45.10
2018-08-14T09:40:24.547Z,46.80
2018-08-14T09:42:54.111Z,46.50
2018-08-14T09:45:23.515Z,46.50
2018-08-14T09:47:51.930Z,46.80
2018-08-14T09:50:21.959Z,46.50
2018-08-14T09:52:50.447Z,47.10
2018-08-14T09:55:19.600Z,47.50
2018-08-14T09:57:48.981Z,48.70
2018-08-14T10:00:25.281Z,47.70
2018-08-14T10:02:59.075Z,47.40
2018-08-14T10:05:32.828Z,47.80
2018-08-14T10:08:14.251Z,47.60
2018-08-14T10:10:42.643Z,48.00
2018-08-14T10:13:12.081Z,48.00
2018-08-14T10:15:40.937Z,48.10
2018-08-14T10:18:12.354Z,47.90
2018-08-14T10:20:40.795Z,47.90
2018-08-14T10:23:09.200Z,47.70
2018-08-14T10:25:37.641Z,47.90
2018-08-14T10:28:06.567Z,47.70
2018-08-14T10:30:35.008Z,46.50
2018-08-14T10:33:03.652Z,44.70
2018-08-14T10:35:31.998Z,44.60
2018-08-14T10:38:00.413Z,42.40
2018-08-14T10:40:28.838Z,41.20
2018-08-14T10:42:57.272Z,42.00
2018-08-14T10:45:25.754Z,43.40
2018-08-14T10:47:54.161Z,45.30
2018-08-14T10:50:23.496Z,45.70
2018-08-14T10:52:51.921Z,47.60
2018-08-14T10:55:20.538Z,47.30
2018-08-14T10:57:49.296Z,48.80
2018-08-14T11:00:24.664Z,49.40
2018-08-14T11:02:53.146Z,49.90
2018-08-14T11:05:22.128Z,50.30
2018-08-14T11:07:51.158Z,49.30
2018-08-14T11:10:22.073Z,48.90
2018-08-14T11:12:50.558Z,49.10
2018-08-14T11:15:18.890Z,49.40
2018-08-14T11:17:47.264Z,49.80
2018-08-14T11:20:18.754Z,50.50
2018-08-14T11:22:47.972Z,49.60
2018-08-14T11:25:16.575Z,49.10
2018-08-14T11:27:44.964Z,48.20
2018-08-14T11:30:15.907Z,48.50
2018-08-14T11:32:44.291Z,48.50
2018-08-14T11:35:12.676Z,48.20
2018-08-14T11:37:41.415Z,48.60
2018-08-14T11:40:10.984Z,49.80
2018-08-14T11:42:39.647Z,50.40
2018-08-14T11:45:18.017Z,51.00
2018-08-14T11:47:46.726Z,51.40
2018-08-14T11:50:16.517Z,52.30
2018-08-14T11:52:46.607Z,52.50
2018-08-14T11:55:16.259Z,52.40
2018-08-14T11:57:44.895Z,52.60
2018-08-14T12:00:15.379Z,51.90
2018-08-14T12:02:43.906Z,51.50
2018-08-14T12:05:12.304Z,52.60
2018-08-14T12:07:41.610Z,53.30
2018-08-14T12:10:10.996Z,52.90
2018-08-14T12:12:39.992Z,53.50
2018-08-14T12:15:09.400Z,53.50
2018-08-14T12:17:37.820Z,53.50
2018-08-14T12:20:06.983Z,52.90
2018-08-14T12:22:35.319Z,52.60
2018-08-14T12:25:03.759Z,51.90
2018-08-14T12:27:32.136Z,51.70
2018-08-14T12:30:00.675Z,52.20
2018-08-14T12:32:29.104Z,52.30
2018-08-14T12:34:57.535Z,52.50
2018-08-14T12:37:25.956Z,52.40
2018-08-14T12:39:54.402Z,52.20
2018-08-14T12:42:22.838Z,52.70
2018-08-14T12:44:54.145Z,53.60
2018-08-14T12:47:23.491Z,53.90
2018-08-14T12:49:52.053Z,59.00
2018-08-14T12:52:20.289Z,63.10
2018-08-14T12:54:48.803Z,63.60
2018-08-14T12:57:17.568Z,60.80
2018-08-14T12:59:45.902Z,61.00
2018-08-14T13:02:14.319Z,59.90
2018-08-14T13:04:42.739Z,58.80
2018-08-14T13:07:11.091Z,58.00
2018-08-14T13:09:39.502Z,58.20
2018-08-14T13:12:08.071Z,58.00
2018-08-14T13:14:36.437Z,58.40
2018-08-14T13:17:04.823Z,58.60
2018-08-14T13:19:33.291Z,69.20
2018-08-14T13:22:01.711Z,70.70
2018-08-14T13:24:30.140Z,78.60
2018-08-14T13:26:58.507Z,79.30
2018-08-14T13:29:26.871Z,76.70
2018-08-14T13:31:55.264Z,77.70
2018-08-14T13:34:23.647Z,78.10
2018-08-14T13:36:51.994Z,75.50
2018-08-14T13:39:20.379Z,75.90
2018-08-14T13:41:48.743Z,73.60
2018-08-14T13:44:17.135Z,70.60
2018-08-14T13:46:45.767Z,68.60
2018-08-14T13:49:14.170Z,65.50
2018-08-14T13:51:42.615Z,63.50
2018-08-14T13:54:11.028Z,62.70
2018-08-14T13:56:39.446Z,61.90
2018-08-14T13:59:07.791Z,63.50
2018-08-14T14:01:36.206Z,61.30
2018-08-14T14:04:04.606Z,62.20
2018-08-14T14:06:33.023Z,62.00
2018-08-14T14:09:01.468Z,61.30
2018-08-14T14:11:29.880Z,64.50
2018-08-14T14:13:58.286Z,62.60
2018-08-14T14:16:26.644Z,61.60
2018-08-14T14:18:55.048Z,60.60
2018-08-14T14:21:23.544Z,58.90
2018-08-14T14:23:51.973Z,58.40
2018-08-14T14:26:20.459Z,57.60
2018-08-14T14:28:48.831Z,57.80
2018-08-14T14:31:17.257Z,57.70
2018-08-14T14:33:45.634Z,58.30
2018-08-14T14:36:14.034Z,58.40
2018-08-14T14:38:42.459Z,59.00
2018-08-14T14:41:11.005Z,64.60
2018-08-14T14:43:39.427Z,67.40
2018-08-14T14:46:07.924Z,67.70
2018-08-14T14:48:36.350Z,70.40
2018-08-14T14:51:04.782Z,71.20
2018-08-14T14:53:33.174Z,67.60
2018-08-14T14:56:01.601Z,65.80
2018-08-14T14:58:30.013Z,65.60
2018-08-14T15:00:58.457Z,66.00
2018-08-14T15:03:26.851Z,66.30
2018-08-14T15:05:55.340Z,67.10
2018-08-14T15:08:23.755Z,68.10
2018-08-14T15:10:52.221Z,68.90
2018-08-14T15:13:20.647Z,69.10
2018-08-14T15:15:49.040Z,70.20
2018-08-14T15:18:17.476Z,71.30
2018-08-14T15:20:45.905Z,70.80
2018-08-14T15:23:14.297Z,70.60
2018-08-14T15:25:42.664Z,69.50
2018-08-14T15:29:17.736Z,68.60
2018-08-14T15:31:50.594Z,70.10
2018-08-14T15:34:20.559Z,70.80
2018-08-14T15:36:50.908Z,69.50
2018-08-14T15:39:20.123Z,68.80
2018-08-14T15:41:48.575Z,69.40
2018-08-14T15:44:16.999Z,68.70
2018-08-14T15:46:45.469Z,69.30
2018-08-14T15:49:13.941Z,69.30
2018-08-14T15:51:42.845Z,70.80
2018-08-14T15:54:12.130Z,72.10
2018-08-14T15:56:40.931Z,71.40
2018-08-14T15:59:09.733Z,70.70
2018-08-14T16:01:38.215Z,70.80
2018-08-14T16:04:08.075Z,70.20
2018-08-14T16:06:36.513Z,71.60
2018-08-14T16:09:08.928Z,69.90
2018-08-14T16:11:37.331Z,69.30
2018-08-14T16:14:05.797Z,67.70
2018-08-14T16:16:34.281Z,68.30
2018-08-14T16:19:02.678Z,67.90
2018-08-14T16:21:31.099Z,67.70
2018-08-14T16:23:59.531Z,68.10
2018-08-14T16:26:28.000Z,67.90
2018-08-14T16:28:56.456Z,68.40
2018-08-14T16:31:24.856Z,68.40
2018-08-14T16:33:53.310Z,68.10
2018-08-14T16:36:21.720Z,67.70
2018-08-14T16:38:50.200Z,68.50
2018-08-14T16:41:18.611Z,68.80
2018-08-14T16:43:46.983Z,68.20
2018-08-14T16:46:15.421Z,67.80
2018-08-14T16:48:43.780Z,66.30
2018-08-14T16:51:12.301Z,67.70
2018-08-14T16:53:40.806Z,69.20
2018-08-14T16:56:09.234Z,67.00
2018-08-14T16:58:37.830Z,66.90
2018-08-14T17:01:06.208Z,66.50
2018-08-14T17:03:34.616Z,66.90
2018-08-14T17:06:03.061Z,66.70
2018-08-14T17:08:31.473Z,66.60
2018-08-14T17:10:59.890Z,67.00
2018-08-14T17:13:28.274Z,66.80
2018-08-14T17:15:56.667Z,66.30
2018-08-14T17:18:25.155Z,67.20
2018-08-14T17:20:52.441Z,66.90
2018-08-14T17:23:20.837Z,66.90
2018-08-14T17:25:49.219Z,66.50
2018-08-14T17:28:17.846Z,65.90
2018-08-14T17:30:46.338Z,66.50
2018-08-14T17:33:14.759Z,66.00
2018-08-14T17:35:43.161Z,65.40
2018-08-14T17:38:11.574Z,64.80
2018-08-14T17:40:39.964Z,64.50
2018-08-14T17:43:08.403Z,64.60
2018-08-14T17:45:37.093Z,64.80
2018-08-14T17:48:05.845Z,65.00
2018-08-14T17:50:34.697Z,63.40
2018-08-14T17:53:03.095Z,62.20
2018-08-14T17:55:31.536Z,61.70
2018-08-14T17:58:00.872Z,60.30
2018-08-14T18:00:30.531Z,59.90
2018-08-14T18:03:02.276Z,60.00
2018-08-14T18:05:30.704Z,61.40
2018-08-14T18:07:59.073Z,63.30
2018-08-14T18:10:27.520Z,63.60
2018-08-14T18:12:56.000Z,65.50
2018-08-14T18:15:24.439Z,68.10
2018-08-14T18:17:52.894Z,71.70
2018-08-14T18:20:22.569Z,71.60
2018-08-14T18:22:50.969Z,73.90
2018-08-14T18:25:20.591Z,76.20
2018-08-14T18:27:49.558Z,77.50
2018-08-14T18:30:19.054Z,78.00
2018-08-14T18:32:47.570Z,77.50
2018-08-14T18:35:16.222Z,76.10
2018-08-14T18:37:45.217Z,75.00
2018-08-14T18:40:16.703Z,74.50
2018-08-14T18:42:45.678Z,73.80
2018-08-14T18:45:16.118Z,73.20
2018-08-14T18:47:44.644Z,73.10
2018-08-14T18:50:14.304Z,75.00
2018-08-14T18:52:43.066Z,76.00
2018-08-14T18:55:14.654Z,76.30
2018-08-14T18:57:44.413Z,76.70
2018-08-14T19:00:20.584Z,79.30
2018-08-14T19:02:50.144Z,81.70
2018-08-14T19:05:19.107Z,83.50
2018-08-14T19:07:47.721Z,83.30
2018-08-14T19:10:17.360Z,83.50
2018-08-14T19:12:46.728Z,83.80
2018-08-14T19:15:20.572Z,84.20
2018-08-14T19:17:49.092Z,84.00
2018-08-14T19:20:17.733Z,83.10
2018-08-14T19:22:46.163Z,83.20
2018-08-14T19:25:14.625Z,82.60
2018-08-14T19:27:43.640Z,83.30
2018-08-14T19:30:13.297Z,83.60
2018-08-14T19:32:42.270Z,82.20
2018-08-14T19:35:12.107Z,82.70
2018-08-14T19:37:40.678Z,83.70
2018-08-14T19:40:26.239Z,81.80
2018-08-14T19:42:55.157Z,82.40
2018-08-14T19:45:23.781Z,84.10
2018-08-14T19:47:52.527Z,82.70
2018-08-14T19:50:22.553Z,83.50
2018-08-14T19:52:51.113Z,83.20
2018-08-14T19:55:20.619Z,82.70
2018-08-14T19:57:50.337Z,82.40
2018-08-14T20:00:23.720Z,81.90
2018-08-14T20:02:52.858Z,81.30
2018-08-14T20:05:21.323Z,81.80
2018-08-14T20:07:50.295Z,81.60
2018-08-14T20:10:18.832Z,80.90
2018-08-14T20:12:47.413Z,81.70
2018-08-14T20:15:17.161Z,80.80
2018-08-14T20:17:45.829Z,80.00
2018-08-14T20:20:17.287Z,79.40
2018-08-14T20:22:46.024Z,79.60
2018-08-14T20:25:15.641Z,79.10
2018-08-14T20:27:44.444Z,78.50
2018-08-14T20:30:15.914Z,78.30
2018-08-14T20:32:45.453Z,79.30
2018-08-14T20:35:15.039Z,78.70
2018-08-14T20:37:44.245Z,77.20
2018-08-14T20:40:15.963Z,78.40
2018-08-14T20:42:44.455Z,77.60
2018-08-14T20:45:13.520Z,78.00
2018-08-14T20:47:42.310Z,77.60
2018-08-14T20:50:12.988Z,77.90
2018-08-14T20:52:41.400Z,77.20
2018-08-14T20:55:10.839Z,77.60
2018-08-14T20:57:40.366Z,76.90
2018-08-14T21:00:11.156Z,76.60
2018-08-14T21:02:39.620Z,76.50
2018-08-14T21:05:08.125Z,76.10
2018-08-14T21:07:36.506Z,75.90
2018-08-14T21:10:06.112Z,75.80
2018-08-14T21:12:39.487Z,75.00
2018-08-14T21:15:09.867Z,75.10
2018-08-14T21:17:38.557Z,75.10
2018-08-14T21:20:07.827Z,74.20
2018-08-14T21:22:36.224Z,74.10
2018-08-14T21:25:05.313Z,74.70
2018-08-14T21:27:34.075Z,74.60
2018-08-14T21:30:02.444Z,74.10
2018-08-14T21:32:31.071Z,74.00
2018-08-14T21:34:59.524Z,74.20
2018-08-14T21:37:27.933Z,73.60
2018-08-14T21:39:56.345Z,74.60
2018-08-14T21:42:24.735Z,74.00
2018-08-14T21:44:53.116Z,74.00
2018-08-14T21:47:21.591Z,74.30
2018-08-14T21:49:49.975Z,74.50
2018-08-14T21:52:18.332Z,74.40
2018-08-14T21:54:46.707Z,74.10
2018-08-14T21:57:15.180Z,73.60
2018-08-14T21:59:43.533Z,73.90
2018-08-14T22:02:11.998Z,74.90
2018-08-14T22:04:40.368Z,74.40
2018-08-14T22:07:09.256Z,74.10
2018-08-14T22:09:37.705Z,74.40
2018-08-14T22:12:06.082Z,74.90
2018-08-14T22:14:34.441Z,75.20
2018-08-14T22:17:02.848Z,74.70
2018-08-14T22:19:31.172Z,75.40
2018-08-14T22:21:59.581Z,75.70
2018-08-14T22:24:28.031Z,75.80
2018-08-14T22:26:56.540Z,75.60
2018-08-14T22:29:24.916Z,75.40
2018-08-14T22:31:53.294Z,76.40
2018-08-14T22:34:21.666Z,76.00
2018-08-14T22:36:50.081Z,76.80
2018-08-14T22:39:18.444Z,76.60
2018-08-14T22:41:46.867Z,75.60
2018-08-14T22:44:15.218Z,74.30
2018-08-14T22:46:43.626Z,75.30
2018-08-14T22:49:11.988Z,75.10
2018-08-14T22:51:40.359Z,75.70
2018-08-14T22:54:08.735Z,76.10
2018-08-14T22:56:37.219Z,76.00
2018-08-14T22:59:05.806Z,76.40
2018-08-14T23:01:34.185Z,76.60
2018-08-14T23:04:02.559Z,76.30
2018-08-14T23:06:30.961Z,76.20
2018-08-14T23:08:59.338Z,76.30
2018-08-14T23:11:27.703Z,76.80
2018-08-14T23:13:56.058Z,76.10
2018-08-14T23:16:24.426Z,76.50
2018-08-14T23:18:53.098Z,77.70
2018-08-14T23:21:21.468Z,77.10
2018-08-14T23:23:49.835Z,77.60
2018-08-14T23:26:18.253Z,77.50
2018-08-14T23:28:46.627Z,77.40
2018-08-14T23:31:15.047Z,78.30
2018-08-14T23:33:43.405Z,78.20
2018-08-14T23:36:11.874Z,78.20
2018-08-14T23:38:40.273Z,78.50
2018-08-14T23:41:08.647Z,78.20
2018-08-14T23:43:37.027Z,78.90
2018-08-14T23:46:05.618Z,78.40
2018-08-14T23:48:33.970Z,79.00
2018-08-14T23:51:02.323Z,78.60
2018-08-14T23:53:30.731Z,78.20
2018-08-14T23:55:59.095Z,78.50
2018-08-14T23:58:27.509Z,78.90
